Time;durP1;ratioP1;P1;durP2;ratioP2;P2;SDS_P1;SDS_P2;PMS_P1;PMS_P2;Temp;Humidity;BMP_temperature;BMP_pressure;BME280_temperature;BME280_humidity;BME280_pressure;Samples;Min_cycle;Max_cycle;Signal;HPM_P1;HPM_P2
2022/05/19 00:03:27;;;;;;;5.15;3.80;;;;;;;20.73;42.87;94127.72;4986400;28;20515;-86
2022/05/19 00:05:53;;;;;;;3.90;3.33;;;;;;;20.72;42.75;94128.97;4970486;28;20039;-85
2022/05/19 00:08:18;;;;;;;5.40;3.80;;;;;;;20.71;42.98;94125.47;4971866;28;20022;-88
2022/05/19 00:10:43;;;;;;;3.70;2.95;;;;;;;20.70;42.67;94128.72;4973789;28;20050;-86
2022/05/19 00:13:09;;;;;;;4.05;2.80;;;;;;;20.70;42.62;94131.47;4972480;28;20034;-87
2022/05/19 00:15:34;;;;;;;4.75;3.00;;;;;;;20.71;42.87;94119.22;4984922;28;20073;-85
2022/05/19 00:18:00;;;;;;;3.72;3.30;;;;;;;20.69;42.94;94125.22;4936930;28;20038;-87
2022/05/19 00:20:25;;;;;;;3.90;3.08;;;;;;;20.71;42.50;94122.72;4936719;28;20038;-87
2022/05/19 00:22:50;;;;;;;3.47;2.92;;;;;;;20.69;42.67;94125.22;4968413;28;20516;-86
2022/05/19 00:25:16;;;;;;;3.55;2.90;;;;;;;20.68;42.86;94125.75;4952234;28;20042;-86
2022/05/19 00:27:41;;;;;;;4.10;3.15;;;;;;;20.69;42.69;94127.97;4937124;28;20042;-85
2022/05/19 00:30:07;;;;;;;2.90;2.60;;;;;;;20.69;42.64;94124.47;4938952;28;20558;-85
2022/05/19 00:32:33;;;;;;;3.40;3.08;;;;;;;20.70;42.58;94118.47;4952668;28;20042;-87
2022/05/19 00:34:58;;;;;;;3.42;3.03;;;;;;;20.67;42.54;94121.50;4952399;28;20489;-85
2022/05/19 00:37:24;;;;;;;3.40;3.00;;;;;;;20.69;42.82;94119.00;4952250;28;20095;-85
2022/05/19 00:39:50;;;;;;;4.05;3.00;;;;;;;20.68;42.46;94109.25;4952288;28;20102;-86
2022/05/19 00:45:00;;;;;;;3.95;2.88;;;;;;;20.67;42.56;94110.50;4951606;28;20049;-86
2022/05/19 00:47:26;;;;;;;3.45;2.50;;;;;;;20.66;42.50;94109.00;4950511;28;20038;-85
2022/05/19 00:49:51;;;;;;;3.38;2.83;;;;;;;20.66;42.32;94117.25;4970483;28;20034;-89
2022/05/19 00:52:26;;;;;;;3.25;2.95;;;;;;;20.66;42.45;94106.25;4971249;28;20045;-88
2022/05/19 00:54:56;;;;;;;3.95;2.50;;;;;;;20.67;42.31;94114.00;4953614;28;20125;-85
2022/05/19 00:57:23;;;;;;;3.15;2.47;;;;;;;20.63;42.45;94113.53;5004593;28;21218;-85
2022/05/19 00:59:51;;;;;;;3.47;2.60;;;;;;;20.64;42.32;94106.78;4970793;28;20034;-86
2022/05/19 01:02:21;;;;;;;3.72;2.80;;;;;;;20.64;42.37;94112.25;4981256;28;20053;-85
2022/05/19 01:04:51;;;;;;;2.97;2.65;;;;;;;20.62;42.23;94111.28;5009296;28;20061;-85
2022/05/19 01:07:22;;;;;;;3.77;3.07;;;;;;;20.63;42.38;94110.03;4992274;28;20084;-89
2022/05/19 01:09:48;;;;;;;4.13;2.35;;;;;;;20.61;42.51;94099.53;4992314;28;20847;-87
2022/05/19 01:12:13;;;;;;;3.00;2.47;;;;;;;20.62;42.00;94103.03;4995943;28;20037;-90
2022/05/19 01:14:39;;;;;;;3.42;2.45;;;;;;;20.60;42.41;94105.53;4971884;28;20042;-85
2022/05/19 01:17:05;;;;;;;2.97;2.55;;;;;;;20.62;42.27;94108.53;4992328;28;20037;-91
2022/05/19 01:19:39;;;;;;;2.60;2.20;;;;;;;20.58;42.54;94108.78;4958798;28;20123;-86
2022/05/19 01:22:12;;;;;;;3.72;2.78;;;;;;;20.60;42.22;94098.06;4956760;28;20661;-86
2022/05/19 01:24:43;;;;;;;3.38;2.78;;;;;;;20.58;42.17;94105.31;4973392;28;20046;-86
2022/05/19 01:27:09;;;;;;;3.95;2.60;;;;;;;20.61;42.30;94104.28;4972328;28;20101;-87
2022/05/19 01:29:34;;;;;;;3.55;2.47;;;;;;;20.59;42.35;94093.81;4965027;28;20046;-87
2022/05/19 01:32:01;;;;;;;2.65;2.20;;;;;;;20.57;41.79;94090.09;4992746;28;20112;-91
2022/05/19 01:34:31;;;;;;;2.85;2.42;;;;;;;20.60;42.03;94092.56;5002290;28;20035;-86
2022/05/19 01:36:56;;;;;;;2.85;2.58;;;;;;;20.57;42.38;94079.13;4956544;28;20566;-87
2022/05/19 01:39:27;;;;;;;3.65;2.65;;;;;;;20.58;42.36;94089.56;4972530;28;20046;-89
2022/05/19 01:42:18;;;;;;;2.90;2.42;;;;;;;20.57;42.13;94084.59;4956870;28;20761;-87
2022/05/19 01:45:04;;;;;;;2.88;2.47;;;;;;;20.57;42.35;94084.59;4972684;28;20072;-87
2022/05/19 01:47:56;;;;;;;2.83;2.25;;;;;;;20.56;42.18;94086.59;4972526;28;20459;-88
2022/05/19 01:50:29;;;;;;;3.47;2.10;;;;;;;20.55;42.68;94084.38;4956657;28;20527;-87
2022/05/19 01:52:59;;;;;;;3.08;2.30;;;;;;;20.57;42.09;94079.13;4972711;28;20038;-85
2022/05/19 01:55:39;;;;;;;2.63;2.10;;;;;;;20.55;42.29;94074.13;4955679;28;20264;-85
2022/05/19 01:58:15;;;;;;;2.25;1.92;;;;;;;20.53;42.32;94071.88;4997311;28;20053;-86
2022/05/19 02:00:40;;;;;;;2.85;1.90;;;;;;;20.56;42.00;94074.88;4960657;28;20782;-90
2022/05/19 02:03:19;;;;;;;2.47;2.20;;;;;;;20.53;42.29;94074.63;4959249;28;20492;-90
2022/05/19 02:05:55;;;;;;;3.25;2.30;;;;;;;20.53;41.94;94082.13;4976421;28;20048;-86
2022/05/19 02:08:42;;;;;;;2.95;2.40;;;;;;;20.53;41.87;94076.63;4974396;28;20065;-90
2022/05/19 02:11:11;;;;;;;2.25;1.92;;;;;;;20.55;41.89;94076.13;4990814;28;20042;-87
2022/05/19 02:13:37;;;;;;;2.45;1.98;;;;;;;20.53;41.85;94071.88;4978205;28;20484;-86
2022/05/19 02:16:03;;;;;;;2.40;2.08;;;;;;;20.51;41.63;94070.91;4994357;28;20128;-85
2022/05/19 02:18:29;;;;;;;2.92;2.42;;;;;;;20.50;41.90;94064.66;4978795;28;20048;-87
2022/05/19 02:20:55;;;;;;;2.60;2.03;;;;;;;20.52;42.18;94066.91;4978213;28;20058;-86
2022/05/19 02:23:21;;;;;;;2.47;2.28;;;;;;;20.51;42.00;94068.91;4978640;28;20041;-85
2022/05/19 02:25:48;;;;;;;2.42;1.83;;;;;;;20.50;41.80;94064.66;5010941;28;20044;-88
2022/05/19 02:28:17;;;;;;;3.00;2.47;;;;;;;20.50;41.82;94053.69;5010071;28;20030;-86
2022/05/19 02:30:43;;;;;;;2.97;2.60;;;;;;;20.51;41.57;94060.66;4979755;28;20128;-90
2022/05/19 02:33:11;;;;;;;2.58;2.22;;;;;;;20.51;41.93;94060.66;4991063;28;20034;-88
2022/05/19 02:35:36;;;;;;;2.28;1.92;;;;;;;20.51;41.82;94055.16;4991187;28;20435;-87
2022/05/19 02:38:02;;;;;;;2.55;2.15;;;;;;;20.51;41.89;94057.16;4990766;28;20084;-86
2022/05/19 02:40:30;;;;;;;2.33;2.10;;;;;;;20.50;41.96;94053.69;5007789;28;20041;-85
2022/05/19 02:42:55;;;;;;;2.92;2.08;;;;;;;20.50;41.77;94047.44;4975324;28;20492;-87
2022/05/19 02:45:21;;;;;;;2.40;2.20;;;;;;;20.50;42.02;94045.44;4974353;28;20091;-88
2022/05/19 02:47:47;;;;;;;3.28;1.98;;;;;;;20.48;42.00;94044.44;4975164;28;20068;-84
2022/05/19 02:50:12;;;;;;;2.20;1.70;;;;;;;20.49;41.58;94048.69;4991059;28;20038;-86
2022/05/19 02:52:41;;;;;;;2.67;2.33;;;;;;;20.49;41.71;94051.44;4959146;28;20056;-88
2022/05/19 02:55:07;;;;;;;2.50;1.75;;;;;;;20.47;41.91;94043.69;4974254;28;20038;-86
2022/05/19 02:57:32;;;;;;;2.22;1.90;;;;;;;20.46;42.04;94042.22;4991039;28;20046;-85
2022/05/19 02:59:58;;;;;;;1.85;1.52;;;;;;;20.48;41.85;94045.19;4955711;28;20489;-88
2022/05/19 03:02:24;;;;;;;1.88;1.60;;;;;;;20.47;41.94;94043.69;4971084;28;20041;-85
2022/05/19 03:04:49;;;;;;;2.90;1.70;;;;;;;20.48;41.85;94044.44;4955010;28;20054;-86
2022/05/19 03:07:15;;;;;;;1.70;1.52;;;;;;;20.47;41.73;94037.47;4940748;28;20042;-86
2022/05/19 03:09:42;;;;;;;2.28;1.80;;;;;;;20.46;41.70;94044.97;4955096;28;20042;-91
2022/05/19 03:12:09;;;;;;;2.28;1.80;;;;;;;20.45;41.67;94043.47;4975635;28;20041;-85
2022/05/19 03:14:34;;;;;;;1.98;1.77;;;;;;;20.44;41.72;94030.25;4977564;28;20041;-85
2022/05/19 03:17:00;;;;;;;2.10;1.70;;;;;;;20.48;42.02;94041.69;4977847;28;20036;-86
2022/05/19 03:19:25;;;;;;;2.10;1.80;;;;;;;20.47;41.76;94042.97;5027204;28;20037;-87
2022/05/19 03:21:50;;;;;;;2.10;1.75;;;;;;;20.45;41.59;94040.72;4994250;28;20041;-86
2022/05/19 03:24:16;;;;;;;3.45;2.13;;;;;;;20.46;41.66;94046.97;5026833;28;20119;-87
2022/05/19 03:26:41;;;;;;;2.47;1.65;;;;;;;20.44;41.92;94036.47;4977373;28;20081;-87
2022/05/19 03:29:07;;;;;;;1.95;1.73;;;;;;;20.46;41.84;94036.72;4974528;28;20045;-85
2022/05/19 03:31:33;;;;;;;2.63;2.10;;;;;;;20.43;41.72;94032.25;4957566;28;20034;-88
2022/05/19 03:33:59;;;;;;;2.22;2.03;;;;;;;20.44;41.58;94039.22;4970979;28;20042;-88
2022/05/19 03:36:24;;;;;;;2.05;1.70;;;;;;;20.43;41.48;94032.25;4971297;28;20061;-86
2022/05/19 03:38:50;;;;;;;2.45;1.98;;;;;;;20.48;41.82;94034.22;4970355;28;20046;-88
2022/05/19 03:41:15;;;;;;;3.38;2.10;;;;;;;20.45;41.53;94043.47;4983860;28;20030;-86
2022/05/19 03:43:41;;;;;;;4.28;3.13;;;;;;;20.46;41.08;94031.22;4981526;28;20038;-86
2022/05/19 03:46:07;;;;;;;2.13;1.52;;;;;;;20.47;41.47;94038.22;4982461;28;20038;-86
2022/05/19 03:48:35;;;;;;;2.38;1.75;;;;;;;20.50;41.91;94039.19;4971116;28;20046;-92
2022/05/19 03:51:06;;;;;;;2.03;1.70;;;;;;;20.51;40.94;94041.44;4987988;28;20638;-87
2022/05/19 03:53:32;;;;;;;2.38;1.83;;;;;;;20.57;41.43;94029.66;5004880;28;20446;-87
2022/05/19 03:55:57;;;;;;;2.72;2.15;;;;;;;20.61;41.13;94036.34;5002597;28;20030;-85
2022/05/19 03:58:23;;;;;;;2.50;2.20;;;;;;;20.67;41.29;94030.84;4997252;28;20033;-89
2022/05/19 04:00:48;;;;;;;6.63;2.53;;;;;;;20.72;40.98;94030.81;4971920;28;20066;-86
2022/05/19 04:03:14;;;;;;;4.43;2.33;;;;;;;20.75;41.03;94029.78;5003330;28;20052;-85
2022/05/19 04:05:39;;;;;;;4.18;2.90;;;;;;;20.79;40.98;94027.47;5006897;28;20100;-85
2022/05/19 04:08:05;;;;;;;6.65;3.28;;;;;;;20.79;40.96;94027.47;4985472;28;20407;-88
2022/05/19 04:10:31;;;;;;;17.67;3.50;;;;;;;20.69;36.56;94036.56;4974120;28;20042;-88
2022/05/19 04:12:57;;;;;;;12.88;6.22;;;;;;;20.67;34.37;94028.84;4986776;28;20048;-87
2022/05/19 04:15:22;;;;;;;25.15;18.38;;;;;;;20.53;32.59;94029.94;4981039;28;20629;-87
2022/05/19 04:17:48;;;;;;;9.68;4.18;;;;;;;20.52;31.83;94029.19;4974489;28;20441;-88
2022/05/19 04:20:14;;;;;;;8.60;3.03;;;;;;;20.41;30.79;94028.50;4973602;28;20051;-90
2022/05/19 04:22:39;;;;;;;19.02;4.03;;;;;;;20.34;30.41;94040.03;4971204;28;20046;-87
2022/05/19 04:25:06;;;;;;;14.55;3.85;;;;;;;20.22;30.64;94033.84;4955389;28;20762;-87
2022/05/19 04:27:31;;;;;;;9.50;3.33;;;;;;;20.08;29.94;94040.41;4957987;28;20135;-89
2022/05/19 04:29:57;;;;;;;14.15;3.65;;;;;;;20.07;30.92;94039.66;4992421;28;20049;-86
2022/05/19 04:32:22;;;;;;;39.85;14.77;;;;;;;20.02;30.67;94034.19;4971255;28;20042;-90
2022/05/19 04:34:48;;;;;;;14.15;7.70;;;;;;;19.92;31.25;94041.22;4958911;28;20562;-88
2022/05/19 04:37:13;;;;;;;42.90;25.25;;;;;;;19.97;31.43;94034.94;4960860;28;20513;-87
2022/05/19 04:39:39;;;;;;;28.58;6.53;;;;;;;19.91;31.43;94031.50;4960278;28;20532;-88
2022/05/19 04:42:11;;;;;;;42.88;20.42;;;;;;;19.93;31.58;94039.97;4946774;28;20041;-88
2022/05/19 04:44:36;;;;;;;38.75;21.10;;;;;;;19.98;31.48;94044.69;4957072;28;20125;-92
2022/05/19 04:47:03;;;;;;;34.15;6.07;;;;;;;19.91;30.99;94037.75;4946883;28;20117;-88
2022/05/19 04:49:29;;;;;;;30.58;5.75;;;;;;;19.90;30.80;94039.00;4958676;28;20039;-86
2022/05/19 04:51:54;;;;;;;16.45;3.47;;;;;;;19.88;30.96;94036.00;4987990;28;20042;-87
2022/05/19 04:54:20;;;;;;;52.33;6.55;;;;;;;19.87;31.26;94042.75;4968549;28;20046;-88
2022/05/19 04:56:46;;;;;;;53.78;7.25;;;;;;;19.88;31.33;94041.50;4974340;28;20138;-86
2022/05/19 04:59:14;;;;;;;38.97;7.18;;;;;;;19.93;31.43;94028.97;4964854;28;20562;-87
2022/05/19 05:01:42;;;;;;;37.88;18.70;;;;;;;19.87;31.47;94031.03;4974337;28;20053;-93
2022/05/19 05:04:07;;;;;;;48.72;21.30;;;;;;;19.90;31.26;94030.03;4972917;28;20054;-87
2022/05/19 05:06:33;;;;;;;50.78;22.55;;;;;;;19.88;31.42;94038.75;4957171;28;20125;-86
2022/05/19 05:08:58;;;;;;;54.63;22.55;;;;;;;19.93;31.81;94031.72;4989553;28;20068;-87
2022/05/19 05:11:24;;;;;;;33.88;17.65;;;;;;;19.81;31.43;94033.78;4984190;28;20143;-86
2022/05/19 05:13:49;;;;;;;32.60;15.05;;;;;;;19.84;31.76;94038.25;4973143;28;20105;-86
2022/05/19 05:16:15;;;;;;;33.13;11.27;;;;;;;19.81;31.74;94040.03;4952093;28;20080;-88
2022/05/19 05:18:40;;;;;;;36.63;10.55;;;;;;;19.84;32.05;94039.00;4958490;28;20042;-88
2022/05/19 05:21:06;;;;;;;28.00;10.32;;;;;;;19.85;32.07;94039.75;4942921;28;20266;-86
2022/05/19 05:23:32;;;;;;;23.10;10.25;;;;;;;19.88;32.30;94041.50;4947165;28;20706;-87
2022/05/19 05:25:57;;;;;;;33.15;10.63;;;;;;;19.80;32.43;94043.25;4971974;28;20516;-88
2022/05/19 05:28:23;;;;;;;30.52;8.75;;;;;;;19.82;32.42;94036.03;4946509;28;20053;-87
2022/05/19 05:30:49;;;;;;;31.60;9.23;;;;;;;19.85;32.76;94040.50;4975346;28;20049;-88
2022/05/19 05:33:15;;;;;;;40.67;9.55;;;;;;;19.84;32.74;94035.53;4996218;28;20038;-86
2022/05/19 05:35:41;;;;;;;41.80;14.75;;;;;;;19.92;33.19;94043.97;4966856;28;20046;-89
2022/05/19 05:38:07;;;;;;;44.25;18.73;;;;;;;19.92;32.96;94039.22;4960715;28;20066;-91
2022/05/19 05:40:33;;;;;;;49.22;17.63;;;;;;;19.90;33.75;94035.50;4946526;28;20070;-87
2022/05/19 05:43:09;;;;;;;73.40;20.73;;;;;;;19.94;33.89;94038.72;4993763;28;20125;-86
2022/05/19 05:45:34;;;;;;;90.10;20.83;;;;;;;19.94;33.80;94044.94;4950046;28;20042;-89
2022/05/19 05:48:01;;;;;;;51.42;18.55;;;;;;;20.02;33.58;94048.66;4950750;28;20045;-86
2022/05/19 05:50:27;;;;;;;51.50;16.17;;;;;;;20.08;33.73;94043.91;4984006;28;20034;-86
2022/05/19 05:52:53;;;;;;;58.20;28.25;;;;;;;20.17;33.64;94049.06;4964878;28;20038;-86
2022/05/19 05:55:19;;;;;;;72.68;28.58;;;;;;;20.23;33.73;94043.56;4949532;28;20049;-92
2022/05/19 05:57:44;;;;;;;67.65;32.20;;;;;;;20.28;33.62;94042.78;4967125;28;20042;-86
2022/05/19 06:00:10;;;;;;;62.80;28.95;;;;;;;20.32;33.74;94048.03;4969050;28;20034;-88
2022/05/19 06:02:36;;;;;;;81.85;33.85;;;;;;;20.39;33.84;94048.25;4950477;28;20078;-93
2022/05/19 06:05:05;;;;;;;101.47;36.35;;;;;;;20.40;33.92;94040.75;4965383;28;20038;-86
2022/05/19 06:07:30;;;;;;;101.45;35.78;;;;;;;20.40;34.12;94049.72;4989826;28;20046;-89
2022/05/19 06:09:56;;;;;;;122.30;42.13;;;;;;;20.49;34.02;94045.94;4936369;28;20043;-88
2022/05/19 06:12:23;;;;;;;95.82;40.45;;;;;;;20.53;33.95;94041.69;4954535;28;20039;-87
2022/05/19 06:14:48;;;;;;;95.10;43.17;;;;;;;20.63;33.71;94052.34;4975514;28;20041;-85
2022/05/19 06:17:14;;;;;;;86.55;39.35;;;;;;;20.65;33.76;94047.06;4981765;28;20034;-88
2022/05/19 06:19:40;;;;;;;83.18;40.60;;;;;;;20.67;34.00;94045.31;4962391;28;20045;-87
2022/05/19 06:22:05;;;;;;;73.45;36.92;;;;;;;20.71;33.77;94051.28;4958385;28;20039;-89
2022/05/19 06:24:32;;;;;;;67.60;35.20;;;;;;;20.70;33.87;94054.53;4938434;28;20499;-87
2022/05/19 06:26:58;;;;;;;73.97;38.40;;;;;;;20.74;33.92;94046.78;4952822;28;20045;-92
2022/05/19 06:29:23;;;;;;;73.97;37.45;;;;;;;20.76;34.00;94044.25;4957535;28;20559;-88
2022/05/19 06:31:49;;;;;;;79.38;42.00;;;;;;;20.73;34.07;94042.53;4976150;28;20452;-91
2022/05/19 06:34:14;;;;;;;90.43;44.22;;;;;;;20.78;34.28;94045.25;4940601;28;20042;-88
2022/05/19 06:36:40;;;;;;;88.85;44.67;;;;;;;20.78;34.39;94039.00;4972707;28;20042;-87
2022/05/19 06:39:05;;;;;;;95.38;46.90;;;;;;;20.74;34.50;94042.03;4956900;28;20042;-92
2022/05/19 06:44:17;;;;;;;91.63;46.90;;;;;;;20.74;34.68;94044.78;4956309;28;20042;-90
2022/05/19 06:46:45;;;;;;;122.50;54.10;;;;;;;20.79;34.93;94043.22;4964970;28;20095;-86
2022/05/19 06:49:10;;;;;;;125.03;53.17;;;;;;;20.81;34.77;94046.22;4975031;28;20045;-86
2022/05/19 06:51:36;;;;;;;126.45;59.20;;;;;;;20.80;34.60;94033.72;4939566;28;20031;-92
2022/05/19 06:54:02;;;;;;;120.32;53.10;;;;;;;20.80;34.85;94050.22;4957643;28;20062;-89
2022/05/19 06:56:27;;;;;;;98.38;45.63;;;;;;;20.84;35.47;94056.19;4974098;28;20042;-88
2022/05/19 06:58:53;;;;;;;97.43;47.97;;;;;;;20.83;35.15;94052.69;4944257;28;20046;-87
2022/05/19 07:01:18;;;;;;;115.50;51.28;;;;;;;20.84;35.05;94040.44;4932165;28;20077;-87
2022/05/19 07:03:44;;;;;;;99.43;50.28;;;;;;;20.87;34.91;94044.16;4940249;28;20035;-86
2022/05/19 07:06:10;;;;;;;93.43;50.20;;;;;;;20.87;34.85;94044.91;4972599;28;20405;-87
2022/05/19 07:08:38;;;;;;;109.55;52.10;;;;;;;20.88;35.14;94040.16;4935591;28;20098;-87
2022/05/19 07:11:05;;;;;;;98.53;50.95;;;;;;;20.93;34.89;94033.88;4955116;28;20034;-88
2022/05/19 07:13:31;;;;;;;235.30;98.82;;;;;;;20.91;35.17;94035.66;4942801;28;20077;-91
2022/05/19 07:15:59;;;;;;;240.48;108.90;;;;;;;20.92;35.45;94037.88;4984265;28;20069;-89
2022/05/19 07:18:25;;;;;;;176.43;82.45;;;;;;;20.95;35.38;94044.38;4978824;28;20042;-91
2022/05/19 07:20:52;;;;;;;237.20;112.80;;;;;;;20.98;35.19;94046.09;4960372;28;20641;-89
2022/05/19 07:23:24;;;;;;;265.55;136.80;;;;;;;20.98;35.55;94041.34;4944391;28;20053;-88
2022/05/19 07:25:50;;;;;;;228.63;119.53;;;;;;;21.01;35.61;94039.53;4948962;28;20039;-88
2022/05/19 07:28:21;;;;;;;326.92;177.00;;;;;;;21.02;35.48;94036.28;4977345;28;20146;-87
2022/05/19 07:30:47;;;;;;;389.52;213.90;;;;;;;21.03;35.61;94039.78;4977398;28;20454;-87
2022/05/19 07:33:15;;;;;;;356.80;200.63;;;;;;;21.06;35.40;94047.00;4977613;28;20073;-86
2022/05/19 07:35:42;;;;;;;351.63;200.15;;;;;;;21.09;35.96;94040.50;4941607;28;20389;-87
2022/05/19 07:38:07;;;;;;;411.75;230.77;;;;;;;21.10;35.55;94039.97;4983390;28;20038;-88
2022/05/19 07:40:33;;;;;;;359.42;208.55;;;;;;;21.12;35.76;94042.22;4983204;28;20116;-88
2022/05/19 07:43:35;;;;;;;389.00;224.15;;;;;;;21.11;36.41;94033.22;4982740;28;20042;-89
2022/05/19 07:45:44;;;;;;;362.55;196.32;;;;;;;21.11;35.98;94035.22;4992580;28;20062;-88
2022/05/19 07:48:10;;;;;;;343.58;189.77;;;;;;;21.09;35.75;94051.47;4956725;28;20109;-86
2022/05/19 07:50:36;;;;;;;232.13;117.97;;;;;;;21.07;35.19;94041.00;5009481;28;20034;-90
2022/05/19 07:53:02;;;;;;;199.35;90.43;;;;;;;21.01;34.70;94045.78;4962456;28;20048;-89
2022/05/19 07:55:27;;;;;;;147.68;66.93;;;;;;;21.00;35.12;94047.06;5000307;28;20042;-91
2022/05/19 07:57:53;;;;;;;143.02;56.60;;;;;;;21.01;35.18;94050.53;4985705;28;20121;-86
2022/05/19 08:00:19;;;;;;;114.13;44.53;;;;;;;21.03;35.25;94051.53;4979111;28;20030;-85
2022/05/19 08:02:45;;;;;;;133.02;49.20;;;;;;;21.00;35.59;94047.06;4993435;28;20097;-85
2022/05/19 08:05:10;;;;;;;149.85;45.00;;;;;;;21.01;35.36;94054.03;4965986;28;20041;-87
2022/05/19 08:07:36;;;;;;;116.82;40.63;;;;;;;21.02;35.32;94047.28;4979659;28;20096;-90
2022/05/19 08:15:35;;;;;;;64.90;19.77;;;;;;;20.97;34.48;94048.09;4984046;28;20049;-88
2022/05/19 08:18:11;;;;;;;47.38;15.00;;;;;;;20.92;34.78;94042.63;4984704;28;20054;-84
2022/05/19 08:20:39;;;;;;;43.13;15.10;;;;;;;20.90;34.92;94045.91;5016245;28;20042;-84
2022/05/19 08:23:06;;;;;;;41.95;16.75;;;;;;;20.95;34.72;94041.63;4995364;28;20046;-84
2022/05/19 08:25:32;;;;;;;75.40;34.00;;;;;;;20.90;35.11;94045.16;5010373;28;20052;-87
2022/05/19 08:27:57;;;;;;;112.93;42.88;;;;;;;20.84;35.52;94042.44;4976382;28;20384;-88
2022/05/19 08:30:23;;;;;;;78.85;32.58;;;;;;;20.90;35.87;94043.16;4975143;28;20044;-88
2022/05/19 08:32:49;;;;;;;92.13;28.98;;;;;;;20.95;35.84;94045.13;4957427;28;20125;-89
2022/05/19 08:35:14;;;;;;;87.45;26.23;;;;;;;20.95;36.30;94047.13;4976297;28;20663;-85
2022/05/19 08:37:40;;;;;;;98.20;29.08;;;;;;;20.96;35.67;94038.34;4967757;28;20045;-85
2022/05/19 08:40:06;;;;;;;140.60;34.97;;;;;;;20.97;36.52;94047.34;5009499;28;20042;-84
2022/05/19 08:42:34;;;;;;;135.57;32.08;;;;;;;20.97;36.43;94045.34;4975581;28;20085;-85
2022/05/19 08:45:01;;;;;;;84.35;20.05;;;;;;;20.96;37.03;94043.09;4963428;28;20034;-85
2022/05/19 08:47:30;;;;;;;76.20;18.60;;;;;;;20.97;37.20;94050.09;4961481;28;20049;-84
2022/05/19 08:50:03;;;;;;;76.88;23.75;;;;;;;21.00;36.93;94047.06;4993875;28;20045;-85
2022/05/19 08:52:37;;;;;;;83.95;30.55;;;;;;;20.97;36.95;94044.59;4989797;28;20100;-85
2022/05/19 08:55:03;;;;;;;116.20;35.85;;;;;;;20.99;37.20;94056.59;4958180;28;20054;-84
2022/05/19 08:57:53;;;;;;;175.98;73.50;;;;;;;20.99;37.11;94059.31;4963018;28;20044;-86
2022/05/19 09:00:40;;;;;;;121.03;52.47;;;;;;;20.97;36.82;94050.09;4978687;28;20125;-85
2022/05/19 09:03:27;;;;;;;89.10;37.58;;;;;;;21.00;37.00;94047.06;4990306;28;20056;-87
2022/05/19 09:06:09;;;;;;;67.70;23.13;;;;;;;21.00;37.08;94051.81;5008145;28;20038;-84
2022/05/19 09:08:46;;;;;;;41.65;18.80;;;;;;;21.03;36.99;94056.28;4976791;28;20484;-83
2022/05/19 09:11:16;;;;;;;43.10;16.35;;;;;;;21.01;37.13;94051.28;4977825;28;20064;-86
2022/05/19 09:14:02;;;;;;;69.80;26.30;;;;;;;20.98;36.82;94044.09;4982702;28;20069;-85
2022/05/19 09:16:31;;;;;;;83.40;21.38;;;;;;;21.03;36.60;94048.03;4995824;28;20444;-85
2022/05/19 09:19:07;;;;;;;48.78;13.45;;;;;;;20.99;36.75;94045.59;4975821;28;20088;-83
2022/05/19 09:21:37;;;;;;;35.92;11.93;;;;;;;21.05;36.65;94042.78;4917677;29;20044;-83
2022/05/19 09:24:04;;;;;;;46.42;13.88;;;;;;;21.02;36.72;94052.78;4905329;29;20129;-82
2022/05/19 09:26:52;;;;;;;40.70;11.13;;;;;;;21.04;37.15;94050.28;4902689;29;20048;-82
2022/05/19 09:29:21;;;;;;;75.53;20.63;;;;;;;21.07;37.02;94043.75;4923550;29;20039;-81
2022/05/19 09:31:49;;;;;;;58.42;24.20;;;;;;;21.09;37.20;94052.22;4921079;29;20376;-82
2022/05/19 09:34:15;;;;;;;48.38;22.65;;;;;;;21.09;37.44;94051.47;4936318;29;20524;-86
2022/05/19 09:36:54;;;;;;;55.72;22.02;;;;;;;21.09;37.28;94054.22;4951695;29;20039;-82
2022/05/19 09:39:20;;;;;;;35.17;16.88;;;;;;;21.08;37.25;94045.25;4925008;29;20058;-87
2022/05/19 09:41:51;;;;;;;32.50;13.68;;;;;;;21.10;37.58;94045.47;4922092;29;20036;-83
2022/05/19 09:44:21;;;;;;;42.90;12.02;;;;;;;21.08;37.58;94050.75;4922645;29;20099;-82
2022/05/19 09:46:48;;;;;;;74.20;23.98;;;;;;;21.17;37.47;94055.16;4923990;29;20049;-82
2022/05/19 09:49:22;;;;;;;59.72;18.60;;;;;;;21.15;37.64;94061.19;4919683;29;20553;-83
2022/05/19 09:51:48;;;;;;;71.75;23.52;;;;;;;21.11;37.63;94057.22;4936485;29;20051;-82
2022/05/19 09:54:14;;;;;;;82.97;30.88;;;;;;;21.11;37.89;94046.97;4920188;29;20042;-83
2022/05/19 09:56:49;;;;;;;68.88;22.67;;;;;;;21.12;38.22;94053.22;4919244;29;20148;-85
2022/05/19 09:59:23;;;;;;;57.63;19.25;;;;;;;21.13;38.06;94058.19;4948620;28;20066;-82
2022/05/19 10:01:49;;;;;;;47.75;14.55;;;;;;;21.13;38.15;94054.72;4956485;28;20038;-82
2022/05/19 10:04:25;;;;;;;26.58;10.05;;;;;;;21.14;38.14;94051.44;4959682;28;20101;-82
2022/05/19 10:06:55;;;;;;;26.33;9.27;;;;;;;21.18;38.49;94057.41;5010875;28;20062;-82
2022/05/19 10:09:29;;;;;;;21.50;7.72;;;;;;;21.16;38.43;94056.44;4994853;28;20115;-82
2022/05/19 10:12:08;;;;;;;20.30;6.60;;;;;;;21.16;38.51;94054.44;4992299;28;20037;-82
2022/05/19 10:14:33;;;;;;;9.77;5.43;;;;;;;21.18;38.84;94048.41;5004489;28;20041;-85
2022/05/19 10:17:21;;;;;;;12.38;5.10;;;;;;;21.19;38.86;94049.91;5000908;28;20064;-85
2022/05/19 10:19:56;;;;;;;9.40;4.97;;;;;;;21.26;38.83;94051.34;4961581;28;20053;-83
2022/05/19 10:22:24;;;;;;;10.05;5.50;;;;;;;21.30;38.60;94057.31;4993203;28;20046;-83
2022/05/19 10:25:18;;;;;;;7.43;5.65;;;;;;;21.28;38.77;94057.09;4962471;28;20058;-82
2022/05/19 10:31:18;;;;;;;12.70;5.30;;;;;;;21.24;38.60;94048.38;5000790;28;20053;-83
2022/05/19 10:34:01;;;;;;;8.68;5.25;;;;;;;21.24;38.60;94038.13;4993754;28;20043;-82
2022/05/19 10:36:58;;;;;;;13.73;5.53;;;;;;;21.26;38.75;94040.34;4992632;28;20050;-82
2022/05/19 10:39:42;;;;;;;16.67;5.22;;;;;;;21.26;38.72;94043.84;4975869;28;20046;-82
2022/05/19 10:42:34;;;;;;;9.52;4.88;;;;;;;21.28;38.73;94037.84;4971710;28;20043;-83
2022/05/19 10:45:19;;;;;;;9.80;4.63;;;;;;;21.30;38.95;94035.31;4956469;28;20066;-82
2022/05/19 10:48:16;;;;;;;6.47;3.75;;;;;;;21.31;39.22;94039.56;4974485;28;20068;-83
2022/05/19 10:50:46;;;;;;;20.23;5.28;;;;;;;21.30;39.17;94027.81;4977901;28;20061;-82
2022/05/19 10:53:33;;;;;;;10.98;4.90;;;;;;;21.31;38.94;94031.31;4993943;28;20405;-82
2022/05/19 10:56:28;;;;;;;15.65;5.43;;;;;;;21.31;39.06;94028.56;4977630;28;20107;-83
2022/05/19 10:59:09;;;;;;;19.45;8.05;;;;;;;21.32;39.11;94019.06;4952246;28;20104;-83
2022/05/19 11:02:02;;;;;;;64.60;35.20;;;;;;;21.32;38.90;94017.06;4970276;28;20498;-81
2022/05/19 11:04:55;;;;;;;52.47;30.90;;;;;;;21.35;38.61;94016.03;4938085;28;20042;-83
2022/05/19 11:07:20;;;;;;;48.50;25.15;;;;;;;21.41;38.55;94018.72;4954437;28;20066;-83
2022/05/19 11:10:24;;;;;;;44.10;22.60;;;;;;;21.40;38.45;94022.75;4952956;28;20035;-81
2022/05/19 11:12:55;;;;;;;53.03;21.65;;;;;;;21.44;38.81;94012.16;4970501;28;20277;-82
2022/05/19 11:15:27;;;;;;;35.35;17.23;;;;;;;21.41;38.63;94005.72;4969554;28;20048;-82
2022/05/19 11:18:05;;;;;;;32.35;14.50;;;;;;;21.43;38.52;94007.97;4960504;28;20057;-81
2022/05/19 11:20:43;;;;;;;207.18;36.90;;;;;;;21.43;38.66;94005.22;4972503;28;20039;-82
2022/05/19 11:23:23;;;;;;;184.45;36.95;;;;;;;21.44;38.72;93998.41;4970630;28;20047;-82
2022/05/19 11:29:06;;;;;;;202.85;47.05;;;;;;;21.46;38.75;93995.91;4958110;28;20139;-82
2022/05/19 11:31:43;;;;;;;145.25;32.60;;;;;;;21.50;38.75;93993.59;4990395;28;20400;-82
2022/05/19 11:34:20;;;;;;;171.55;32.95;;;;;;;21.51;38.76;93993.09;4992619;28;20051;-88
2022/05/19 11:36:56;;;;;;;119.32;24.33;;;;;;;21.53;38.78;93998.06;4961715;28;20547;-85
2022/05/19 11:39:27;;;;;;;160.10;27.92;;;;;;;21.54;38.58;93988.56;4967220;28;20050;-83
2022/05/19 11:41:53;;;;;;;80.32;15.68;;;;;;;21.54;38.80;93999.56;4956418;28;20038;-83
2022/05/19 11:44:30;;;;;;;39.55;11.63;;;;;;;21.53;38.71;93992.56;4956939;28;20041;-85
2022/05/19 11:47:13;;;;;;;28.25;9.43;;;;;;;21.56;38.64;93986.03;4956693;28;20062;-83
2022/05/19 11:55:53;;;;;;;42.35;10.45;;;;;;;21.62;39.22;93994.25;4919389;29;20082;-84
2022/05/19 11:58:28;;;;;;;24.58;7.05;;;;;;;21.67;39.02;93994.16;4914065;29;20916;-83